Time;durP1;ratioP1;P1;durP2;ratioP2;P2;SDS_P1;SDS_P2;PMS_P1;PMS_P2;Temp;Humidity;BMP_temperature;BMP_pressure;BME280_temperature;BME280_humidity;BME280_pressure;Samples;Min_cycle;Max_cycle;Signal;HPM_P1;HPM_P2
2021/04/21 00:02:15;;;;;;;15.78;10.70;;;;;;;5.47;89.71;98722.81;1749207;80;21104;-79
2021/04/21 00:04:46;;;;;;;16.95;9.60;;;;;;;5.47;89.67;98725.53;1765077;81;21186;-79
2021/04/21 00:07:18;;;;;;;17.57;10.23;;;;;;;5.48;89.76;98736.67;1749063;82;20940;-78
2021/04/21 00:09:46;;;;;;;16.48;10.60;;;;;;;5.47;90.11;98729.06;1765069;80;20933;-78
2021/04/21 00:12:16;;;;;;;16.77;10.20;;;;;;;5.48;90.04;98733.95;1764850;81;20964;-79
2021/04/21 00:14:52;;;;;;;17.40;9.98;;;;;;;5.48;90.03;98733.40;1735683;81;21043;-79
2021/04/21 00:17:20;;;;;;;15.18;9.60;;;;;;;5.48;90.04;98736.13;1749108;80;21205;-79
2021/04/21 00:19:49;;;;;;;15.35;9.88;;;;;;;5.49;90.14;98730.13;1764633;80;21048;-79
2021/04/21 00:22:17;;;;;;;16.20;9.48;;;;;;;5.47;90.13;98732.34;1769880;77;21203;-78
2021/04/21 00:24:45;;;;;;;15.93;10.15;;;;;;;5.48;90.14;98739.40;1774748;80;21071;-79
2021/04/21 00:27:17;;;;;;;19.27;10.38;;;;;;;5.46;90.38;98744.34;1815955;78;21078;-78
2021/04/21 00:29:48;;;;;;;15.75;10.00;;;;;;;5.45;90.60;98740.00;1815681;79;21441;-77
2021/04/21 00:32:16;;;;;;;17.67;10.80;;;;;;;5.46;90.53;98745.70;1807082;79;21185;-77
2021/04/21 00:34:44;;;;;;;14.65;9.68;;;;;;;5.45;90.59;98747.61;1803868;77;21465;-77
2021/04/21 00:37:12;;;;;;;16.70;9.88;;;;;;;5.46;90.63;98749.23;1823968;77;21102;-78
2021/04/21 00:39:42;;;;;;;14.00;9.10;;;;;;;5.41;90.73;98755.32;1815966;79;21134;-77
2021/04/21 00:42:31;;;;;;;16.02;9.38;;;;;;;5.41;90.73;98755.32;1830441;77;21424;-77
2021/04/21 00:45:08;;;;;;;14.47;9.95;;;;;;;5.41;90.72;98753.41;1774955;80;22056;-78
2021/04/21 00:48:12;;;;;;;14.80;9.98;;;;;;;5.40;91.00;98755.88;1767186;80;20934;-79
2021/04/21 00:51:00;;;;;;;14.50;9.20;;;;;;;5.42;91.06;98761.02;1774981;80;21101;-82
2021/04/21 00:53:38;;;;;;;16.73;9.35;;;;;;;5.42;91.31;98763.19;1788094;80;21073;-78
2021/04/21 00:56:29;;;;;;;16.32;9.65;;;;;;;5.43;91.07;98755.83;1730454;83;22209;-79
2021/04/21 00:59:08;;;;;;;14.18;10.30;;;;;;;5.43;91.07;98755.83;1671905;85;21175;-87
2021/04/21 01:01:37;;;;;;;16.57;10.00;;;;;;;5.44;91.14;98752.80;1715583;83;21619;-83
2021/04/21 01:04:04;;;;;;;12.68;8.55;;;;;;;5.44;91.12;98755.53;1704740;83;21054;-83
2021/04/21 01:06:37;;;;;;;13.55;9.95;;;;;;;5.43;91.15;98755.83;1673717;84;21094;-84
2021/04/21 01:09:06;;;;;;;12.15;8.10;;;;;;;5.42;91.31;98749.58;1758444;81;21379;-83
2021/04/21 01:11:48;;;;;;;15.18;8.98;;;;;;;5.42;91.31;98749.58;1729768;83;21110;-80
2021/04/21 01:14:22;;;;;;;12.00;8.40;;;;;;;5.43;91.24;98762.63;1703025;83;21062;-82
2021/04/21 01:16:55;;;;;;;12.93;8.45;;;;;;;5.42;91.34;98758.30;1702702;83;21149;-82
2021/04/21 01:19:47;;;;;;;14.07;9.58;;;;;;;5.43;91.37;98759.36;1729979;83;21158;-82
2021/04/21 01:22:44;;;;;;;14.25;9.68;;;;;;;5.43;91.48;98759.91;1729956;83;21203;-81
2021/04/21 01:25:50;;;;;;;13.58;9.28;;;;;;;5.45;91.53;98769.95;1729715;83;20963;-82
2021/04/21 01:28:20;;;;;;;13.05;8.78;;;;;;;5.45;91.53;98769.95;1697164;84;21106;-82
2021/04/21 01:30:47;;;;;;;14.68;8.80;;;;;;;5.45;91.82;98759.06;1709087;83;21193;-79
2021/04/21 01:33:17;;;;;;;16.05;9.18;;;;;;;5.46;91.80;98761.48;1728289;83;21073;-80
2021/04/21 01:35:56;;;;;;;11.80;8.60;;;;;;;5.45;91.86;98768.03;1700662;84;21294;-79
2021/04/21 01:38:24;;;;;;;12.78;9.35;;;;;;;5.43;91.71;98769.44;1690343;84;21554;-80
2021/04/21 01:40:52;;;;;;;14.58;10.50;;;;;;;5.44;92.12;98771.05;1667551;84;21085;-80
2021/04/21 01:43:22;;;;;;;11.57;8.40;;;;;;;5.42;92.15;98768.63;1740250;82;21160;-80
2021/04/21 01:45:56;;;;;;;12.82;9.10;;;;;;;5.43;92.32;98774.33;1750616;82;21049;-80
2021/04/21 01:48:24;;;;;;;;;;;;;;;5.45;92.34;98776.75;1753077;82;21370;-80
2021/04/21 01:50:52;;;;;;;15.32;9.93;;;;;;;5.46;92.52;98777.00;1750378;82;20216;-84
2021/04/21 01:53:41;;;;;;;17.50;10.23;;;;;;;5.46;92.52;98777.00;1753306;81;21547;-84
2021/04/21 01:56:21;;;;;;;13.60;9.28;;;;;;;5.46;92.57;98774.28;1815884;79;20987;-84
2021/04/21 01:59:07;;;;;;;12.35;9.20;;;;;;;5.46;92.68;98770.20;1774814;80;21044;-84
2021/04/21 02:01:59;;;;;;;15.53;10.10;;;;;;;5.47;92.73;98767.73;1803639;79;21201;-83
2021/04/21 02:04:59;;;;;;;16.67;9.73;;;;;;;5.46;92.73;98771.01;1783923;80;21026;-86
2021/04/21 02:08:15;;;;;;;13.90;9.35;;;;;;;5.45;92.96;98772.11;1783880;80;21050;-84
2021/04/21 02:11:10;;;;;;;16.77;10.10;;;;;;;5.42;93.18;98765.10;1788056;79;20932;-81
2021/04/21 02:14:31;;;;;;;13.83;9.83;;;;;;;5.42;93.23;98771.91;1794398;79;21553;-78
2021/04/21 02:17:24;;;;;;;14.68;9.70;;;;;;;5.41;93.31;98772.46;1816038;79;21815;-79
2021/04/21 02:20:19;;;;;;;15.18;10.65;;;;;;;5.43;93.35;98777.60;1748794;80;21511;-80
2021/04/21 02:23:04;;;;;;;13.00;9.18;;;;;;;5.40;93.40;98775.48;1815918;79;21137;-80
2021/04/21 02:25:56;;;;;;;13.58;9.15;;;;;;;5.44;93.41;98781.94;1746770;80;21054;-84
2021/04/21 02:29:20;;;;;;;17.10;10.50;;;;;;;5.44;93.44;98775.94;1815970;79;20932;-84
2021/04/21 02:31:57;;;;;;;;;;;;;;;5.47;93.38;98774.53;1818570;79;21707;-82
2021/04/21 02:34:56;;;;;;;16.20;9.93;;;;;;;5.46;93.30;98781.09;1815601;79;20232;-78
2021/04/21 02:37:36;;;;;;;13.55;9.23;;;;;;;5.46;93.30;98781.09;1807788;79;21061;-78
2021/04/21 02:40:12;;;;;;;14.50;9.45;;;;;;;5.46;93.39;98785.17;1815873;79;21055;-78
2021/04/21 02:43:16;;;;;;;17.60;9.78;;;;;;;5.46;93.43;98786.53;1815880;79;20940;-78
2021/04/21 02:46:18;;;;;;;13.15;9.25;;;;;;;5.46;93.57;98787.89;1774588;80;21663;-77
2021/04/21 02:49:11;;;;;;;15.98;10.18;;;;;;;5.46;93.57;98787.89;1815761;79;20932;-79
2021/04/21 02:51:56;;;;;;;14.83;9.43;;;;;;;5.44;93.61;98785.47;1815854;79;20984;-79
2021/04/21 02:55:07;;;;;;;18.70;10.15;;;;;;;5.45;93.66;98795.80;1776378;80;21495;-81
2021/04/21 02:58:03;;;;;;;13.70;10.10;;;;;;;5.44;93.79;98791.47;1748176;81;21092;-80
2021/04/21 03:00:52;;;;;;;15.90;10.85;;;;;;;5.43;93.83;98793.94;1725601;82;21570;-83
2021/04/21 03:03:55;;;;;;;14.98;10.68;;;;;;;5.44;93.78;98795.55;1726075;82;21570;-83
2021/04/21 03:06:30;;;;;;;15.28;10.20;;;;;;;5.42;93.94;98803.20;1715785;83;21073;-81
2021/04/21 03:09:09;;;;;;;12.70;9.50;;;;;;;5.42;93.94;98803.20;1726307;83;21143;-83
2021/04/21 03:11:37;;;;;;;15.10;11.12;;;;;;;5.41;94.75;98806.48;1715859;83;21615;-83
2021/04/21 03:14:25;;;;;;;17.05;11.03;;;;;;;5.41;94.70;98802.41;1726288;83;21136;-84
2021/04/21 03:16:58;;;;;;;16.30;10.40;;;;;;;5.41;94.70;98802.41;1715646;83;20938;-84
2021/04/21 03:19:29;;;;;;;18.75;11.28;;;;;;;5.42;94.78;98807.29;1726328;83;21081;-85
2021/04/21 03:22:05;;;;;;;16.65;11.57;;;;;;;5.41;94.89;98807.84;1731954;80;21492;-82
2021/04/21 03:24:35;;;;;;;15.00;10.88;;;;;;;5.41;95.05;98813.29;1756427;81;21069;-83
2021/04/21 03:27:05;;;;;;;15.50;11.33;;;;;;;5.41;95.16;98814.65;1750408;80;21215;-82
2021/04/21 03:29:39;;;;;;;21.25;10.85;;;;;;;5.42;95.38;98820.91;1777701;80;20960;-81
2021/04/21 03:32:20;;;;;;;15.65;10.48;;;;;;;5.42;95.38;98820.91;1777815;80;21038;-82
2021/04/21 03:34:48;;;;;;;16.30;11.78;;;;;;;5.41;95.60;98818.73;1777888;80;21661;-83
2021/04/21 03:37:39;;;;;;;18.17;10.23;;;;;;;5.40;95.73;98831.28;1751888;80;21079;-80
2021/04/21 03:40:09;;;;;;;18.43;12.23;;;;;;;5.40;95.77;98831.28;1758215;80;21205;-79
2021/04/21 03:42:38;;;;;;;16.50;12.25;;;;;;;5.39;96.08;98832.39;1721940;82;21506;-84
2021/04/21 03:45:07;;;;;;;16.67;11.18;;;;;;;5.39;96.17;98832.39;1726266;83;21168;-82
2021/04/21 03:47:34;;;;;;;14.83;11.10;;;;;;;5.40;96.28;98838.09;1746927;82;20936;-87
2021/04/21 03:50:05;;;;;;;17.15;11.73;;;;;;;5.40;96.37;98838.09;1747102;82;20948;-84
2021/04/21 03:52:43;;;;;;;17.98;11.73;;;;;;;5.38;96.36;98841.66;1746975;82;21388;-85
2021/04/21 03:55:12;;;;;;;18.82;11.85;;;;;;;5.39;96.62;98847.36;1743750;82;21110;-88
2021/04/21 03:57:43;;;;;;;15.60;10.53;;;;;;;5.39;96.71;98854.97;1744193;82;21502;-79
2021/04/21 04:00:15;;;;;;;16.10;11.78;;;;;;;5.41;96.85;98851.39;1816131;79;21560;-84
2021/04/21 04:02:52;;;;;;;15.03;11.38;;;;;;;5.41;96.83;98852.76;1747471;82;20954;-81
2021/04/21 04:05:23;;;;;;;19.48;10.90;;;;;;;5.43;96.81;98853.27;1787071;79;22294;-81
2021/04/21 04:07:51;;;;;;;19.33;11.33;;;;;;;5.44;96.81;98855.44;1815315;79;21569;-84
2021/04/21 04:10:18;;;;;;;26.60;11.83;;;;;;;5.42;96.71;98863.09;1815890;79;20936;-81
2021/04/21 04:12:46;;;;;;;18.20;12.03;;;;;;;5.39;96.64;98870.49;1815959;79;21069;-80
2021/04/21 04:15:14;;;;;;;16.67;12.03;;;;;;;5.39;96.64;98870.49;1815948;79;21165;-80
2021/04/21 04:17:49;;;;;;;17.30;11.43;;;;;;;5.38;96.74;98871.59;1815918;79;21362;-83
2021/04/21 04:20:17;;;;;;;15.15;10.93;;;;;;;5.37;96.75;98869.98;1815859;78;20939;-85
2021/04/21 04:22:49;;;;;;;17.20;11.45;;;;;;;5.37;96.76;98872.70;1816064;79;21578;-83
2021/04/21 04:25:18;;;;;;;19.05;12.00;;;;;;;5.36;96.78;98873.25;1816069;79;21042;-81
2021/04/21 04:27:46;;;;;;;16.05;11.83;;;;;;;5.40;96.89;98872.11;1815933;79;21043;-79
2021/04/21 04:30:15;;;;;;;17.35;11.60;;;;;;;5.40;97.06;98872.11;1799252;79;21142;-78
2021/04/21 04:32:43;;;;;;;17.70;12.63;;;;;;;5.46;96.98;98865.48;1786474;79;20940;-78
2021/04/21 04:35:11;;;;;;;19.37;12.80;;;;;;;5.46;96.98;98865.48;1811442;79;21673;-81
2021/04/21 04:37:42;;;;;;;21.57;11.53;;;;;;;5.49;96.98;98872.49;1814930;79;21109;-82
2021/04/21 04:40:13;;;;;;;18.35;12.45;;;;;;;5.55;96.92;98863.13;1815462;79;21598;-83
2021/04/21 04:42:41;;;;;;;17.52;11.70;;;;;;;5.55;96.92;98863.13;1815468;79;21582;-81
2021/04/21 04:45:10;;;;;;;18.00;12.00;;;;;;;5.59;96.72;98860.06;1815591;78;21145;-83
2021/04/21 04:47:52;;;;;;;19.23;12.37;;;;;;;5.63;96.75;98866.53;1815640;79;21605;-84
2021/04/21 04:50:21;;;;;;;18.02;11.22;;;;;;;5.68;96.61;98878.44;1816038;79;21105;-86
2021/04/21 04:52:51;;;;;;;14.73;12.33;;;;;;;5.70;96.39;98886.56;1815886;79;21133;-84
2021/04/21 04:55:20;;;;;;;19.92;11.95;;;;;;;5.72;96.50;98900.69;1818677;78;21372;-84
2021/04/21 04:57:50;;;;;;;21.45;12.53;;;;;;;5.72;96.50;98900.69;1819287;78;20999;-83
2021/04/21 05:00:24;;;;;;;19.37;12.90;;;;;;;5.86;96.44;98898.77;1819556;78;21580;-89
2021/04/21 05:03:17;;;;;;;18.92;13.05;;;;;;;5.86;96.44;98898.77;1819487;78;21129;-85
2021/04/21 05:05:44;;;;;;;22.98;13.20;;;;;;;5.95;96.06;98905.17;1819409;78;20911;-85
2021/04/21 05:08:15;;;;;;;24.07;12.93;;;;;;;6.08;96.13;98897.31;1819330;78;21457;-82
2021/04/21 05:10:50;;;;;;;19.48;12.60;;;;;;;6.17;95.72;98896.87;1819335;78;20904;-84
2021/04/21 05:13:22;;;;;;;22.70;12.68;;;;;;;6.27;95.48;98900.76;1756367;81;21053;-87
2021/04/21 05:15:58;;;;;;;20.05;13.58;;;;;;;6.36;94.06;98911.73;1778072;80;26564;-84
2021/04/21 05:18:59;;;;;;;21.60;13.78;;;;;;;6.43;93.61;98910.77;1778101;80;21470;-85
2021/04/21 05:22:14;;;;;;;23.25;16.05;;;;;;;6.49;93.52;98901.38;1766650;80;22112;-83
2021/04/21 05:25:22;;;;;;;21.93;14.68;;;;;;;6.56;92.49;98906.67;1725320;83;21104;-84
2021/04/21 05:28:18;;;;;;;27.95;17.85;;;;;;;6.69;91.67;98909.69;1726176;83;21022;-83
2021/04/21 05:31:39;;;;;;;23.22;15.72;;;;;;;6.80;90.34;98907.00;1716388;80;21607;-83
2021/04/21 05:35:05;;;;;;;20.92;15.50;;;;;;;6.90;90.13;98909.51;1756246;81;21171;-82
2021/04/21 05:38:05;;;;;;;25.45;14.60;;;;;;;7.04;89.85;98917.07;1756216;81;21382;-81
2021/04/21 05:41:07;;;;;;;21.65;14.18;;;;;;;7.16;89.46;98913.80;1756174;81;21127;-83
2021/04/21 05:44:00;;;;;;;23.22;13.58;;;;;;;7.22;89.01;98918.84;1756180;81;20950;-82
2021/04/21 05:47:06;;;;;;;20.08;12.50;;;;;;;7.32;88.21;98929.27;1756180;81;21160;-82
2021/04/21 05:50:15;;;;;;;20.68;14.18;;;;;;;7.39;88.43;98927.73;1739202;81;21100;-82
2021/04/21 05:53:16;;;;;;;23.83;12.33;;;;;;;7.46;87.48;98929.47;1725332;83;21402;-84
2021/04/21 05:56:07;;;;;;;25.60;12.13;;;;;;;7.53;87.49;98932.55;1714393;82;21524;-79
2021/04/21 05:58:40;;;;;;;20.97;12.60;;;;;;;7.62;87.02;98928.52;1731205;82;21170;-79
2021/04/21 06:01:22;;;;;;;16.35;10.63;;;;;;;7.69;86.68;98923.98;1783650;80;21173;-84
2021/04/21 06:03:57;;;;;;;17.27;11.78;;;;;;;7.77;86.22;98926.77;1783752;80;20935;-80
2021/04/21 06:06:26;;;;;;;17.12;10.63;;;;;;;7.76;85.17;98927.08;1783177;80;21205;-72
2021/04/21 06:08:53;;;;;;;18.48;11.80;;;;;;;7.72;84.62;98929.62;1783894;80;21063;-76
2021/04/21 06:11:26;;;;;;;18.73;11.55;;;;;;;7.69;84.40;98934.34;1785274;78;21077;-77
2021/04/21 06:14:00;;;;;;;19.42;11.48;;;;;;;7.69;84.46;98939.81;1805501;78;21170;-78
2021/04/21 06:16:29;;;;;;;20.00;11.63;;;;;;;7.72;84.35;98937.82;1796488;78;21184;-80
2021/04/21 06:19:07;;;;;;;18.70;11.05;;;;;;;7.78;84.28;98944.77;1818603;77;21360;-80
2021/04/21 06:21:37;;;;;;;17.02;10.82;;;;;;;7.82;83.72;98941.66;1812219;77;21628;-79
2021/04/21 06:24:26;;;;;;;16.60;10.63;;;;;;;7.82;83.04;98941.66;1817323;77;21572;-78
2021/04/21 06:27:11;;;;;;;17.25;10.23;;;;;;;7.85;82.69;98936.94;1743644;82;21186;-79
2021/04/21 06:29:40;;;;;;;16.93;9.90;;;;;;;7.89;81.84;98944.77;1721899;82;21207;-86
2021/04/21 06:32:13;;;;;;;16.87;10.45;;;;;;;8.01;82.09;98942.83;1739229;81;21504;-85
2021/04/21 06:34:42;;;;;;;16.55;9.33;;;;;;;8.17;81.78;98954.95;1742122;82;20948;-78
2021/04/21 06:37:09;;;;;;;14.90;9.05;;;;;;;8.30;80.41;98947.77;1743983;81;20978;-77
2021/04/21 06:39:37;;;;;;;14.53;8.58;;;;;;;8.39;80.57;98958.78;1730570;83;21172;-79
2021/04/21 06:42:06;;;;;;;14.63;9.00;;;;;;;8.51;80.74;98957.63;1743660;81;21110;-85
2021/04/21 06:44:47;;;;;;;14.70;8.20;;;;;;;8.67;80.15;98957.97;1743946;82;22366;-85
2021/04/21 06:47:24;;;;;;;17.98;8.80;;;;;;;8.76;78.21;98965.65;1744053;82;20948;-89
2021/04/21 06:50:08;;;;;;;14.23;8.00;;;;;;;8.76;76.26;98967.02;1719373;82;21093;-83
2021/04/21 06:52:37;;;;;;;12.65;7.80;;;;;;;8.67;77.11;98966.18;1799062;79;21157;-87
2021/04/21 06:55:09;;;;;;;16.45;7.47;;;;;;;8.64;76.92;98965.48;1775574;80;21063;-89
2021/04/21 06:57:37;;;;;;;12.35;8.48;;;;;;;8.60;76.74;98968.84;1726340;83;21375;-82
2021/04/21 07:00:11;;;;;;;10.85;6.75;;;;;;;8.59;76.14;98974.07;1728328;82;21623;-84
2021/04/21 07:02:41;;;;;;;15.38;7.10;;;;;;;8.58;76.68;98968.92;1776230;79;20991;-83
2021/04/21 07:05:37;;;;;;;12.20;6.65;;;;;;;8.63;76.46;98974.81;1767553;80;22193;-86
2021/04/21 07:08:09;;;;;;;14.75;7.03;;;;;;;8.65;75.74;98974.73;1746040;82;21497;-78
2021/04/21 07:10:49;;;;;;;13.10;7.10;;;;;;;8.68;74.96;98976.00;1746523;82;22315;-82
2021/04/21 07:13:24;;;;;;;11.85;6.60;;;;;;;8.70;75.02;98979.23;1746273;82;21176;-73
2021/04/21 07:15:55;;;;;;;12.95;6.85;;;;;;;8.76;75.17;98983.44;1746315;82;21110;-73
2021/04/21 07:18:30;;;;;;;12.98;6.70;;;;;;;8.79;73.28;98978.70;1746848;82;21118;-73
2021/04/21 07:20:59;;;;;;;10.55;6.70;;;;;;;8.75;73.50;98976.34;1748210;79;21136;-74
2021/04/21 07:23:28;;;;;;;10.98;6.45;;;;;;;8.82;74.67;98982.98;1762320;80;22143;-74
2021/04/21 07:25:55;;;;;;;10.68;6.37;;;;;;;9.00;74.85;98978.35;1777135;80;21186;-82
2021/04/21 07:28:23;;;;;;;9.58;6.22;;;;;;;9.24;73.90;98980.06;1777058;80;21150;-80
2021/04/21 07:30:53;;;;;;;8.43;5.05;;;;;;;9.48;72.61;98982.34;1777250;80;21114;-91
2021/04/21 07:33:46;;;;;;;9.43;5.58;;;;;;;9.66;70.05;98973.55;1767999;80;21138;-84
2021/04/21 07:36:21;;;;;;;7.30;5.17;;;;;;;9.80;69.57;98972.02;1749100;81;21375;-86
2021/04/21 07:38:53;;;;;;;7.47;5.08;;;;;;;9.98;68.65;98971.39;1750999;80;21617;-81
2021/04/21 07:41:44;;;;;;;6.60;4.50;;;;;;;10.19;68.17;98964.92;1777362;80;21142;-81
2021/04/21 07:44:50;;;;;;;7.03;4.87;;;;;;;10.46;66.98;98972.48;1777418;80;21083;-82
2021/04/21 07:47:11;;;;;;;6.50;3.92;;;;;;;10.89;65.65;98975.03;1775453;80;21031;-86
2021/04/21 07:49:48;;;;;;;9.90;4.42;;;;;;;11.38;61.37;98979.47;1777334;80;21020;-79
2021/04/21 07:52:28;;;;;;;5.97;4.65;;;;;;;11.58;61.30;98974.52;1777340;80;21149;-78
2021/04/21 07:55:17;;;;;;;8.78;4.33;;;;;;;11.60;61.02;98972.23;1738902;81;21219;-77
2021/04/21 07:57:58;;;;;;;4.90;3.92;;;;;;;11.60;60.39;98980.48;1743563;82;21163;-79
2021/04/21 08:00:31;;;;;;;7.10;4.33;;;;;;;11.67;60.84;98982.13;1743835;82;21114;-76
2021/04/21 08:03:00;;;;;;;6.97;4.12;;;;;;;11.85;60.06;98983.61;1743717;82;21434;-78
2021/04/21 08:05:28;;;;;;;6.72;4.50;;;;;;;11.99;59.85;98990.77;1743405;82;21157;-76
2021/04/21 08:08:00;;;;;;;10.95;4.72;;;;;;;12.05;59.64;98986.67;1743417;82;21045;-78
2021/04/21 08:10:36;;;;;;;5.90;4.40;;;;;;;12.23;59.06;98988.08;1743390;82;21043;-80
2021/04/21 08:13:08;;;;;;;7.33;3.85;;;;;;;12.61;56.87;98985.63;1744166;82;21058;-80
2021/04/21 08:15:39;;;;;;;7.67;4.20;;;;;;;12.89;56.00;98992.05;1724989;79;22280;-80
2021/04/21 08:18:14;;;;;;;7.75;3.80;;;;;;;12.90;54.58;98985.39;1753747;81;21061;-76
2021/04/21 08:20:51;;;;;;;5.25;3.50;;;;;;;12.66;54.58;98987.59;1743885;82;21499;-85
2021/04/21 08:23:21;;;;;;;9.15;4.50;;;;;;;12.30;54.41;98987.52;1741311;82;21047;-74
2021/04/21 08:25:49;;;;;;;6.17;3.85;;;;;;;11.96;55.32;98996.95;1743907;82;21562;-74
2021/04/21 08:28:17;;;;;;;7.10;3.90;;;;;;;11.74;56.07;99005.76;1743375;81;21623;-83
2021/04/21 08:30:53;;;;;;;6.50;3.65;;;;;;;11.95;54.81;98998.09;1723480;80;21189;-79
2021/04/21 08:33:20;;;;;;;8.93;4.25;;;;;;;12.39;56.45;98986.86;1750894;81;21119;-70
2021/04/21 08:35:48;;;;;;;5.42;3.70;;;;;;;12.94;54.36;98983.55;1759431;80;21063;-73
2021/04/21 08:38:16;;;;;;;5.72;3.72;;;;;;;13.31;52.90;98980.77;1750764;80;21071;-71
2021/04/21 08:40:43;;;;;;;7.20;3.98;;;;;;;13.33;51.01;98979.27;1731553;81;21377;-78
2021/04/21 08:43:11;;;;;;;3.90;3.15;;;;;;;13.12;51.37;98980.79;1729995;83;20999;-74
2021/04/21 08:45:38;;;;;;;6.90;3.47;;;;;;;12.84;51.29;98988.14;1731775;81;21119;-73
2021/04/21 08:48:07;;;;;;;5.47;3.90;;;;;;;12.58;51.60;98980.80;1731053;82;21076;-73
2021/04/21 08:50:36;;;;;;;6.28;3.98;;;;;;;12.32;52.59;98978.35;1730934;82;21088;-81
2021/04/21 08:53:08;;;;;;;5.33;3.98;;;;;;;12.10;53.15;98980.38;1730934;82;21363;-78
2021/04/21 08:55:37;;;;;;;4.72;3.50;;;;;;;12.09;53.88;98987.59;1729728;82;21165;-84
2021/04/21 08:58:07;;;;;;;6.42;3.77;;;;;;;12.33;53.58;98982.71;1748673;81;21089;-81
2021/04/21 09:00:35;;;;;;;4.87;3.20;;;;;;;12.61;52.22;98972.67;1758045;81;21512;-80
2021/04/21 09:03:02;;;;;;;4.33;2.92;;;;;;;12.74;50.92;98983.89;1725890;81;21147;-81
2021/04/21 09:05:30;;;;;;;5.17;3.33;;;;;;;12.71;49.58;98976.92;1724829;83;22853;-84
2021/04/21 09:07:57;;;;;;;4.55;3.60;;;;;;;12.56;50.91;98982.52;1724653;83;21016;-79
2021/04/21 09:10:25;;;;;;;4.42;3.15;;;;;;;12.46;50.40;98974.71;1736501;80;21116;-84
2021/04/21 09:12:52;;;;;;;5.97;3.22;;;;;;;12.29;49.73;98977.08;1741506;81;21108;-84
2021/04/21 09:15:19;;;;;;;4.37;3.20;;;;;;;12.18;50.37;98980.03;1812344;79;21101;-84
2021/04/21 09:17:51;;;;;;;4.40;2.83;;;;;;;12.42;49.36;98976.53;1762527;79;21341;-82
2021/04/21 09:20:23;;;;;;;5.25;3.30;;;;;;;12.74;49.26;98972.07;1811964;79;20990;-84
2021/04/21 09:23:12;;;;;;;7.47;3.70;;;;;;;12.95;49.57;98981.61;1780908;79;21116;-85
2021/04/21 09:25:53;;;;;;;5.87;4.58;;;;;;;12.99;50.82;98973.69;1798597;77;20983;-83
2021/04/21 09:28:22;;;;;;;5.80;3.67;;;;;;;12.78;51.92;98980.68;1780283;80;21111;-85
2021/04/21 09:30:57;;;;;;;8.50;3.80;;;;;;;12.60;53.32;98984.02;1740433;82;21150;-83
2021/04/21 09:33:26;;;;;;;6.42;4.05;;;;;;;12.76;53.11;98987.68;1709607;83;21141;-85
2021/04/21 09:35:53;;;;;;;10.00;5.55;;;;;;;13.14;53.73;98984.58;1740569;82;21097;-84
2021/04/21 09:38:24;;;;;;;5.70;3.67;;;;;;;13.55;51.29;98976.01;1740400;82;21142;-85
2021/04/21 09:41:01;;;;;;;4.35;3.62;;;;;;;14.01;50.34;98982.60;1740522;82;21118;-82
2021/04/21 09:43:33;;;;;;;13.65;5.67;;;;;;;14.47;50.14;98973.61;1740359;82;21207;-81
2021/04/21 09:46:19;;;;;;;6.58;3.65;;;;;;;14.89;47.33;98973.66;1740233;82;21958;-85
2021/04/21 09:48:48;;;;;;;28.27;5.75;;;;;;;14.65;47.00;98969.12;1742543;82;21111;-83
2021/04/21 09:51:18;;;;;;;8.00;3.83;;;;;;;14.13;50.55;98996.34;1785342;80;21532;-83
2021/04/21 09:53:47;;;;;;;9.38;4.35;;;;;;;13.52;53.19;98990.49;1785267;79;21116;-81
2021/04/21 09:56:22;;;;;;;8.33;4.90;;;;;;;12.78;56.79;98988.14;1785211;79;21199;-82
2021/04/21 09:58:57;;;;;;;14.83;6.28;;;;;;;11.99;59.30;98986.65;1795097;77;20982;-82
2021/04/21 10:01:36;;;;;;;11.60;6.33;;;;;;;11.40;61.63;98993.11;1731089;82;21161;-80
2021/04/21 10:04:24;;;;;;;6.65;4.72;;;;;;;11.03;63.89;98995.36;1722227;82;22000;-84
2021/04/21 10:06:58;;;;;;;6.55;4.97;;;;;;;10.77;66.58;98999.08;1740458;82;21570;-83
2021/04/21 10:09:37;;;;;;;8.38;6.03;;;;;;;10.67;68.80;99008.24;1740430;82;21996;-83
2021/04/21 10:12:21;;;;;;;8.38;6.00;;;;;;;10.52;68.76;99021.38;1735280;82;21128;-81
2021/04/21 10:15:08;;;;;;;9.63;5.40;;;;;;;10.36;69.16;99018.95;1702611;84;21577;-81
2021/04/21 10:17:40;;;;;;;10.03;6.03;;;;;;;10.12;69.07;99014.52;1722036;83;21908;-81
2021/04/21 10:20:17;;;;;;;7.25;5.08;;;;;;;9.79;69.70;99014.27;1701523;84;21135;-83
2021/04/21 10:22:47;;;;;;;10.82;8.00;;;;;;;9.60;71.06;99007.73;1690295;84;21379;-83
2021/04/21 10:25:15;;;;;;;11.10;7.58;;;;;;;9.74;73.14;99008.94;1736352;82;21167;-82
2021/04/21 10:27:43;;;;;;;7.75;5.12;;;;;;;10.23;74.17;99011.71;1812196;79;20960;-83
2021/04/21 10:30:12;;;;;;;6.50;5.35;;;;;;;10.93;72.75;99004.02;1771110;79;21130;-89
2021/04/21 10:32:41;;;;;;;8.08;5.50;;;;;;;11.65;67.50;99006.40;1782856;80;21177;-83
2021/04/21 10:35:09;;;;;;;9.43;5.78;;;;;;;12.29;67.05;98993.59;1794502;79;21185;-83
2021/04/21 10:37:38;;;;;;;8.40;5.87;;;;;;;12.94;63.49;98992.39;1805558;79;21664;-83
2021/04/21 10:40:06;;;;;;;10.53;7.55;;;;;;;13.39;62.14;98993.63;1749995;80;21130;-81
2021/04/21 10:42:51;;;;;;;11.08;7.95;;;;;;;13.88;62.49;98986.79;1783114;80;21106;-79
2021/04/21 10:45:22;;;;;;;10.32;7.65;;;;;;;14.21;59.71;98980.20;1783491;80;21141;-77
2021/04/21 10:47:50;;;;;;;12.88;8.23;;;;;;;14.19;59.21;98992.17;1743453;82;21605;-77
2021/04/21 10:50:43;;;;;;;11.35;8.65;;;;;;;13.98;57.40;98982.73;1712397;83;21102;-77
2021/04/21 10:53:31;;;;;;;12.37;8.38;;;;;;;13.69;58.05;98982.52;1743805;82;21162;-76
2021/04/21 10:56:21;;;;;;;8.90;7.37;;;;;;;13.45;58.69;98982.01;1682731;84;21216;-79
2021/04/21 10:58:53;;;;;;;10.32;7.80;;;;;;;13.61;59.18;98977.95;1721615;83;21106;-78
2021/04/21 11:01:35;;;;;;;11.75;7.83;;;;;;;13.86;58.49;98978.67;1721855;83;23728;-79
2021/04/21 11:04:07;;;;;;;11.30;6.58;;;;;;;13.99;56.38;98975.25;1721701;82;21122;-78
2021/04/21 11:06:45;;;;;;;12.80;7.03;;;;;;;13.91;54.41;98977.59;1719512;82;20961;-77
2021/04/21 11:09:13;;;;;;;11.33;7.35;;;;;;;13.64;53.55;98985.52;1713369;83;21084;-80
2021/04/21 11:11:48;;;;;;;11.00;6.40;;;;;;;13.39;54.96;98988.11;1729287;81;21116;-78
2021/04/21 11:14:19;;;;;;;8.10;5.78;;;;;;;13.22;54.64;98990.58;1751021;82;21183;-83
2021/04/21 11:16:47;;;;;;;8.95;5.80;;;;;;;12.97;54.89;98991.70;1738635;82;21098;-84
2021/04/21 11:19:25;;;;;;;9.78;6.00;;;;;;;12.82;56.11;98987.69;1698374;83;21645;-81
2021/04/21 11:22:27;;;;;;;9.40;6.20;;;;;;;12.91;53.84;98992.51;1721351;83;21078;-83
2021/04/21 11:25:23;;;;;;;7.87;5.75;;;;;;;13.15;53.76;98982.86;1735966;82;20992;-83
2021/04/21 11:27:54;;;;;;;8.68;5.25;;;;;;;13.37;52.22;98995.92;1705853;82;21665;-84
2021/04/21 11:30:42;;;;;;;11.35;6.05;;;;;;;13.23;52.31;98992.18;1704732;83;21123;-81
2021/04/21 11:33:50;;;;;;;6.97;5.28;;;;;;;13.06;53.30;98997.91;1700248;84;20990;-81
2021/04/21 11:36:37;;;;;;;7.17;5.55;;;;;;;12.96;53.77;99005.25;1732464;81;21619;-79
2021/04/21 11:39:05;;;;;;;11.08;6.40;;;;;;;12.79;55.72;99000.77;1735738;82;21060;-79
2021/04/21 11:41:51;;;;;;;8.80;5.53;;;;;;;12.65;55.75;98995.62;1735781;82;21653;-78
2021/04/21 11:44:51;;;;;;;9.08;5.28;;;;;;;12.55;56.02;98999.62;1733298;82;21105;-77
2021/04/21 11:47:45;;;;;;;7.92;5.08;;;;;;;12.48;56.98;98983.43;1732496;82;21445;-79
2021/04/21 11:50:31;;;;;;;8.58;5.60;;;;;;;12.67;57.52;98987.02;1733383;82;21499;-80
2021/04/21 11:53:16;;;;;;;9.03;5.58;;;;;;;13.17;56.21;98987.48;1733524;82;21131;-80
2021/04/21 11:55:58;;;;;;;8.50;5.15;;;;;;;13.84;54.74;98976.26;1727014;82;21260;-80
2021/04/21 11:58:31;;;;;;;8.65;4.95;;;;;;;14.19;50.48;98967.33;1714853;82;21137;-79
2021/04/21 12:01:10;;;;;;;7.95;4.70;;;;;;;14.54;51.43;98973.80;1718626;83;21141;-80
2021/04/21 12:03:44;;;;;;;7.10;4.22;;;;;;;14.88;48.06;98967.33;1718608;82;21150;-78
2021/04/21 12:06:15;;;;;;;8.15;4.55;;;;;;;15.23;47.95;98977.59;1718546;83;21129;-78
2021/04/21 12:08:47;;;;;;;7.95;4.97;;;;;;;15.52;44.53;98972.92;1730755;82;21264;-80
2021/04/21 12:11:33;;;;;;;6.22;4.15;;;;;;;15.50;43.59;98976.63;1729491;80;21137;-80
2021/04/21 12:13:58;;;;;;;;;;;;;;;15.62;44.20;98970.17;1750696;82;21019;-80
2021/04/21 12:16:28;;;;;;;6.83;4.45;;;;;;;15.69;41.68;98969.73;1748640;82;21065;-81
2021/04/21 12:18:56;;;;;;;7.80;5.12;;;;;;;15.48;42.48;98974.81;1748497;82;21134;-85
2021/04/21 12:21:32;;;;;;;9.13;5.22;;;;;;;15.20;43.17;98970.83;1748471;81;21358;-83